createdAt,value
2022-11-26T00:11:19.899Z,14.20
2022-11-26T00:31:19.667Z,15.10
2022-11-26T00:51:19.405Z,119.30
2022-11-26T01:11:19.128Z,140.00
2022-11-26T01:31:18.873Z,58.50
2022-11-26T01:51:18.610Z,57.50
2022-11-26T02:11:18.298Z,5.90
2022-11-26T02:31:18.065Z,67.90
2022-11-26T02:51:17.754Z,5.60
2022-11-26T03:11:17.544Z,8.70
2022-11-26T03:31:17.247Z,16.00
2022-11-26T03:51:16.950Z,40.20
2022-11-26T04:11:16.703Z,6.30
2022-11-26T04:31:16.543Z,52.20
2022-11-26T04:51:16.141Z,38.90
2022-11-26T05:11:15.933Z,9.60
2022-11-26T05:31:15.669Z,12.90
2022-11-26T05:51:15.342Z,29.20
2022-11-26T06:11:15.075Z,29.20
2022-11-26T06:31:14.849Z,9.10
2022-11-26T06:51:14.596Z,18.20
2022-11-26T07:11:14.276Z,66.60
2022-11-26T07:31:16.803Z,28.10
2022-11-26T07:51:13.769Z,51.00
2022-11-26T08:11:13.472Z,41.00
2022-11-26T08:31:13.266Z,36.30
2022-11-26T08:51:12.932Z,33.40
2022-11-26T09:11:12.690Z,57.30
2022-11-26T09:31:12.486Z,122.20
2022-11-26T09:51:12.169Z,95.00
2022-11-26T10:11:11.881Z,75.60
2022-11-26T10:31:11.638Z,75.20
2022-11-26T10:51:12.346Z,118.90
2022-11-26T11:11:11.097Z,66.60
2022-11-26T11:31:10.850Z,54.50
2022-11-26T11:51:10.624Z,79.00
2022-11-26T12:11:10.269Z,69.60
2022-11-26T12:31:09.995Z,95.30
2022-11-26T12:51:09.731Z,85.40
2022-11-26T13:11:10.190Z,97.10
2022-11-26T13:31:09.255Z,136.70
2022-11-26T13:51:08.935Z,131.90
2022-11-26T14:11:08.654Z,86.20
2022-11-26T14:31:08.378Z,76.00
2022-11-26T14:51:08.106Z,86.80
2022-11-26T15:11:07.824Z,113.10
2022-11-26T15:31:07.576Z,111.70
2022-11-26T15:51:07.282Z,104.50
2022-11-26T16:11:07.018Z,68.30
2022-11-26T16:31:06.816Z,103.60
2022-11-26T16:51:07.533Z,117.60
2022-11-26T17:11:06.248Z,125.60
2022-11-26T17:31:06.053Z,66.50
2022-11-26T17:51:05.671Z,92.20
2022-11-26T18:11:05.425Z,104.00
2022-11-26T18:31:05.167Z,90.30
2022-11-26T18:51:04.854Z,79.60
2022-11-26T19:11:04.588Z,99.50
2022-11-26T19:31:04.375Z,81.00
2022-11-26T19:51:04.047Z,103.00
2022-11-26T20:11:03.771Z,71.00
2022-11-26T20:31:03.568Z,69.10
2022-11-26T20:51:03.241Z,88.10
2022-11-26T21:11:02.975Z,59.20
2022-11-26T21:31:02.847Z,48.40
2022-11-26T21:51:02.445Z,49.80
2022-11-26T22:11:02.170Z,40.10
2022-11-26T22:31:01.949Z,46.70
2022-11-26T22:51:01.618Z,54.10
2022-11-26T23:11:01.391Z,73.50
2022-11-26T23:31:01.127Z,40.20
2022-11-26T23:51:00.791Z,20.40
